Time;durP1;ratioP1;P1;durP2;ratioP2;P2;SDS_P1;SDS_P2;PMS_P1;PMS_P2;Temp;Humidity;BMP_temperature;BMP_pressure;BME280_temperature;BME280_humidity;BME280_pressure;Samples;Min_cycle;Max_cycle;Signal;HPM_P1;HPM_P2
2022/01/17 00:00:59;;;;;;;38.03;18.20;;;1.00;99.90;;;;;;459875;258;27994;-68
2022/01/17 00:03:00;;;;;;;41.63;19.23;;;1.00;99.90;;;;;;459897;258;27974;-68
2022/01/17 00:05:01;;;;;;;43.33;19.90;;;0.90;99.90;;;;;;459884;258;27494;-68
2022/01/17 00:07:02;;;;;;;43.03;18.92;;;1.00;99.90;;;;;;459865;258;27575;-68
2022/01/17 00:09:04;;;;;;;44.35;20.50;;;1.00;99.90;;;;;;459872;258;27603;-68
2022/01/17 00:11:05;;;;;;;53.95;20.92;;;1.00;99.90;;;;;;459873;258;27476;-68
2022/01/17 00:13:10;;;;;;;49.05;22.10;;;1.00;99.90;;;;;;459864;258;27491;-68
2022/01/17 00:15:14;;;;;;;46.05;20.73;;;1.00;99.90;;;;;;459848;258;27563;-68
2022/01/17 00:19:30;;;;;;;45.75;20.27;;;1.00;99.90;;;;;;459873;258;28061;-68
2022/01/17 00:21:20;;;;;;;42.50;18.50;;;1.00;99.90;;;;;;459897;258;27507;-68
2022/01/17 00:23:21;;;;;;;46.10;20.95;;;0.90;99.90;;;;;;459845;258;27509;-69
2022/01/17 00:25:22;;;;;;;45.85;19.70;;;0.90;99.90;;;;;;459701;258;27967;-68
2022/01/17 00:27:24;;;;;;;38.10;17.87;;;0.90;99.90;;;;;;459659;258;28591;-68
2022/01/17 00:29:25;;;;;;;39.40;17.90;;;1.00;99.90;;;;;;459678;258;29193;-68
2022/01/17 00:31:26;;;;;;;37.63;18.67;;;1.00;99.90;;;;;;459708;258;27571;-68
2022/01/17 00:33:27;;;;;;;44.22;19.08;;;1.00;99.90;;;;;;459858;258;27458;-68
2022/01/17 00:35:29;;;;;;;40.28;18.90;;;0.90;99.90;;;;;;459871;258;27494;-68
2022/01/17 00:37:30;;;;;;;34.25;16.80;;;1.00;99.90;;;;;;459898;258;27557;-69
2022/01/17 00:39:31;;;;;;;36.20;17.70;;;1.00;99.90;;;;;;459876;258;27543;-69
2022/01/17 00:41:32;;;;;;;34.75;17.08;;;0.90;99.90;;;;;;459804;258;28027;-69
2022/01/17 00:43:35;;;;;;;37.90;18.12;;;0.90;99.90;;;;;;459873;258;27921;-68
2022/01/17 00:45:38;;;;;;;40.70;17.95;;;1.00;99.90;;;;;;459865;258;27498;-68
2022/01/17 00:47:36;;;;;;;40.80;17.92;;;0.90;99.90;;;;;;459866;258;27572;-69
2022/01/17 00:49:38;;;;;;;44.42;18.20;;;1.00;99.90;;;;;;459862;258;27559;-68
2022/01/17 00:51:39;;;;;;;44.35;18.42;;;1.00;99.90;;;;;;459870;258;27484;-68
2022/01/17 00:53:41;;;;;;;38.78;18.08;;;0.90;99.90;;;;;;459852;258;27567;-68
2022/01/17 00:55:41;;;;;;;35.90;17.12;;;1.00;99.90;;;;;;459850;258;27590;-68
2022/01/17 00:57:43;;;;;;;40.10;17.60;;;1.00;99.90;;;;;;459891;258;27963;-68
2022/01/17 00:59:44;;;;;;;35.05;15.95;;;1.00;99.90;;;;;;459872;258;28037;-68
2022/01/17 01:01:45;;;;;;;32.00;14.93;;;1.00;99.90;;;;;;459887;258;27570;-68
2022/01/17 01:03:46;;;;;;;34.10;16.15;;;1.00;99.90;;;;;;459855;258;27477;-68
2022/01/17 01:05:48;;;;;;;33.45;15.15;;;1.00;99.90;;;;;;459883;258;27459;-68
2022/01/17 01:07:50;;;;;;;41.35;17.25;;;1.00;99.90;;;;;;459885;258;27535;-68
2022/01/17 01:10:02;;;;;;;37.58;17.25;;;1.00;99.90;;;;;;459831;258;27554;-68
2022/01/17 01:11:51;;;;;;;35.45;16.15;;;0.90;99.90;;;;;;459895;258;27514;-68
2022/01/17 01:13:53;;;;;;;40.92;17.05;;;1.00;99.90;;;;;;459867;258;28173;-68
2022/01/17 01:18:13;;;;;;;33.85;15.15;;;1.00;99.90;;;;;;459873;258;27462;-68
2022/01/17 01:20:33;;;;;;;28.98;14.32;;;1.00;99.90;;;;;;459891;258;27513;-68
2022/01/17 01:29:14;;;;;;;34.25;16.05;;;1.00;99.90;;;;;;459850;253;27586;-68
2022/01/17 01:31:21;;;;;;;32.75;16.23;;;1.00;99.90;;;;;;459874;258;28317;-68
2022/01/17 01:33:23;;;;;;;39.08;17.35;;;1.00;99.90;;;;;;459886;258;27925;-68
2022/01/17 01:35:20;;;;;;;36.20;16.35;;;1.00;99.90;;;;;;459878;258;27538;-69
2022/01/17 01:37:19;;;;;;;34.25;15.55;;;1.00;99.90;;;;;;459886;258;27538;-68
2022/01/17 01:39:24;;;;;;;30.85;15.85;;;1.00;99.90;;;;;;459835;258;27530;-68
2022/01/17 01:41:24;;;;;;;31.48;14.45;;;1.00;99.90;;;;;;459851;258;27974;-68
2022/01/17 01:43:25;;;;;;;29.35;14.25;;;1.00;99.90;;;;;;459877;258;27491;-68
2022/01/17 01:45:27;;;;;;;29.33;14.32;;;1.00;99.90;;;;;;459887;258;27534;-68
2022/01/17 01:47:28;;;;;;;30.05;14.40;;;1.00;99.90;;;;;;459873;258;27519;-68
2022/01/17 01:49:29;;;;;;;34.63;16.05;;;1.00;99.90;;;;;;459847;258;27540;-68
2022/01/17 01:51:30;;;;;;;32.58;17.10;;;1.00;99.90;;;;;;459905;258;27559;-68
2022/01/17 01:53:32;;;;;;;34.33;16.45;;;0.90;99.90;;;;;;459866;258;27522;-68
2022/01/17 01:55:33;;;;;;;32.38;15.15;;;0.90;99.90;;;;;;459850;258;28014;-68
2022/01/17 01:57:34;;;;;;;31.85;14.65;;;0.90;99.90;;;;;;459872;258;28026;-68
2022/01/17 01:59:37;;;;;;;32.05;14.13;;;0.90;99.90;;;;;;459896;258;27479;-68
2022/01/17 02:01:37;;;;;;;33.20;14.87;;;0.90;99.90;;;;;;459907;258;27531;-69
2022/01/17 02:03:38;;;;;;;35.45;14.93;;;0.90;99.90;;;;;;459900;258;27534;-69
2022/01/17 02:05:40;;;;;;;38.58;17.23;;;0.90;99.90;;;;;;459872;258;27482;-68
2022/01/17 02:07:40;;;;;;;29.98;14.82;;;0.90;99.90;;;;;;460326;258;27499;-69
2022/01/17 02:09:42;;;;;;;30.05;14.65;;;0.90;99.90;;;;;;459876;258;28519;-68
2022/01/17 02:11:43;;;;;;;34.10;16.37;;;0.90;99.90;;;;;;459882;258;27460;-68
2022/01/17 02:13:46;;;;;;;34.45;15.70;;;0.90;99.90;;;;;;459869;258;27577;-68
2022/01/17 02:15:47;;;;;;;35.55;15.50;;;0.90;99.90;;;;;;459841;258;27462;-68
2022/01/17 02:17:54;;;;;;;28.67;13.98;;;0.90;99.90;;;;;;459858;258;27491;-68
2022/01/17 02:19:48;;;;;;;26.75;13.85;;;0.90;99.90;;;;;;459887;258;28059;-69
2022/01/17 02:21:50;;;;;;;30.70;14.15;;;0.90;99.90;;;;;;459884;258;27912;-68
2022/01/17 02:23:51;;;;;;;32.13;14.65;;;0.90;99.90;;;;;;459841;258;27606;-68
2022/01/17 02:25:55;;;;;;;30.77;12.88;;;0.90;99.90;;;;;;459831;258;27503;-69
2022/01/17 02:27:53;;;;;;;34.38;14.87;;;0.90;99.90;;;;;;459846;258;27491;-68
2022/01/17 02:29:54;;;;;;;33.22;15.13;;;0.90;99.90;;;;;;459909;258;27535;-68
2022/01/17 02:31:56;;;;;;;28.87;14.35;;;0.90;99.90;;;;;;459914;258;27474;-68
2022/01/17 02:33:57;;;;;;;34.78;14.38;;;0.90;99.90;;;;;;459901;258;27546;-69
2022/01/17 02:35:58;;;;;;;27.48;13.45;;;0.90;99.90;;;;;;459911;258;28070;-68
2022/01/17 02:37:59;;;;;;;33.30;15.32;;;0.90;99.90;;;;;;459900;258;28089;-68
2022/01/17 02:40:01;;;;;;;28.20;14.30;;;0.90;99.90;;;;;;459906;258;27506;-68
2022/01/17 02:42:02;;;;;;;28.67;14.10;;;0.90;99.90;;;;;;459883;258;27502;-68
2022/01/17 02:44:03;;;;;;;29.20;13.48;;;0.90;99.90;;;;;;459869;258;27575;-68
2022/01/17 02:48:06;;;;;;;31.60;15.63;;;0.90;99.90;;;;;;459898;258;27474;-68
2022/01/17 02:50:07;;;;;;;32.88;14.00;;;0.90;99.90;;;;;;459884;258;27974;-68
2022/01/17 02:52:08;;;;;;;31.52;14.75;;;0.90;99.90;;;;;;459883;258;28109;-68
2022/01/17 02:54:09;;;;;;;35.63;16.35;;;0.90;99.90;;;;;;459892;258;27929;-68
2022/01/17 02:56:11;;;;;;;30.17;13.68;;;0.90;99.90;;;;;;459926;258;27611;-68
2022/01/17 02:58:12;;;;;;;33.55;14.85;;;1.00;99.90;;;;;;459918;258;27510;-68
2022/01/17 03:00:13;;;;;;;33.63;16.15;;;0.90;99.90;;;;;;459898;258;27571;-68
2022/01/17 03:02:14;;;;;;;33.05;14.00;;;0.90;99.90;;;;;;459892;258;27542;-68
2022/01/17 03:04:16;;;;;;;29.00;13.13;;;1.00;99.90;;;;;;459909;258;27515;-68
2022/01/17 03:06:17;;;;;;;32.55;14.73;;;0.90;99.90;;;;;;459898;258;27971;-68
2022/01/17 03:08:20;;;;;;;27.00;12.43;;;0.90;99.90;;;;;;459906;258;28052;-68
2022/01/17 03:12:30;;;;;;;32.35;14.75;;;0.90;99.90;;;;;;459900;258;27460;-68
2022/01/17 03:14:33;;;;;;;32.58;14.65;;;0.90;99.90;;;;;;459901;258;27570;-68
2022/01/17 03:16:35;;;;;;;33.95;15.40;;;0.90;99.90;;;;;;459898;258;27909;-69
2022/01/17 03:18:36;;;;;;;31.58;14.85;;;0.90;99.90;;;;;;459882;258;27970;-68
2022/01/17 03:20:37;;;;;;;36.50;17.05;;;0.90;99.90;;;;;;459904;258;28057;-68
2022/01/17 03:22:39;;;;;;;35.00;16.67;;;0.90;99.90;;;;;;459888;258;27470;-68
2022/01/17 03:24:38;;;;;;;33.22;16.00;;;0.90;99.90;;;;;;459889;258;27501;-69
2022/01/17 03:26:39;;;;;;;30.27;15.88;;;0.90;99.90;;;;;;459894;258;27471;-68
2022/01/17 03:28:40;;;;;;;32.45;14.95;;;0.90;99.90;;;;;;460386;258;27566;-68
2022/01/17 03:30:42;;;;;;;33.35;14.87;;;0.90;99.90;;;;;;459915;258;27498;-69
2022/01/17 03:32:43;;;;;;;31.67;14.55;;;0.90;99.90;;;;;;459896;258;27502;-68
2022/01/17 03:34:44;;;;;;;28.83;15.77;;;0.90;99.90;;;;;;459896;258;28106;-68
2022/01/17 03:36:45;;;;;;;37.97;16.17;;;0.90;99.90;;;;;;459864;258;29944;-68
2022/01/17 03:38:46;;;;;;;35.72;15.88;;;0.80;99.90;;;;;;459911;258;27555;-68
2022/01/17 03:40:50;;;;;;;37.17;15.93;;;0.80;99.90;;;;;;459886;258;27518;-68
2022/01/17 03:42:49;;;;;;;38.65;16.37;;;0.80;99.90;;;;;;459866;258;27459;-68
2022/01/17 03:44:50;;;;;;;35.67;16.70;;;0.80;99.90;;;;;;459863;258;27518;-68
2022/01/17 03:46:51;;;;;;;34.58;15.20;;;0.80;99.90;;;;;;459908;258;27958;-68
2022/01/17 03:48:53;;;;;;;37.72;15.98;;;0.80;99.90;;;;;;459908;258;27507;-69
2022/01/17 03:50:55;;;;;;;37.53;17.87;;;0.80;99.90;;;;;;459863;258;28163;-68
2022/01/17 03:52:55;;;;;;;38.90;16.90;;;0.80;99.90;;;;;;459845;258;27907;-68
2022/01/17 03:54:57;;;;;;;36.35;16.87;;;0.70;99.90;;;;;;459870;258;27587;-68
2022/01/17 03:56:59;;;;;;;41.37;20.12;;;0.80;99.90;;;;;;459910;258;27491;-68
2022/01/17 03:59:00;;;;;;;39.65;20.52;;;0.80;99.90;;;;;;459899;258;27506;-69
2022/01/17 04:01:02;;;;;;;39.25;19.58;;;0.70;99.90;;;;;;459879;258;27995;-69
2022/01/17 04:03:03;;;;;;;41.42;19.33;;;0.80;99.90;;;;;;459875;258;27994;-68
2022/01/17 04:05:04;;;;;;;40.53;18.67;;;0.70;99.90;;;;;;459903;258;27970;-68
2022/01/17 04:07:05;;;;;;;35.42;17.60;;;0.70;99.90;;;;;;459894;258;27459;-68
2022/01/17 04:09:06;;;;;;;39.22;18.17;;;0.80;99.90;;;;;;459874;258;27571;-68
2022/01/17 04:11:08;;;;;;;35.38;17.85;;;0.70;99.90;;;;;;459877;258;27474;-68
2022/01/17 04:13:09;;;;;;;39.47;18.65;;;0.70;99.90;;;;;;459899;258;27487;-68
2022/01/17 04:15:10;;;;;;;37.83;17.12;;;0.70;99.90;;;;;;459911;258;27501;-68
2022/01/17 04:17:11;;;;;;;31.20;16.15;;;0.70;99.90;;;;;;459911;258;27985;-68
2022/01/17 04:19:13;;;;;;;33.45;16.40;;;0.70;99.90;;;;;;459884;258;27989;-68
2022/01/17 04:21:14;;;;;;;41.08;19.08;;;0.70;99.90;;;;;;459875;258;27884;-68
2022/01/17 04:23:15;;;;;;;36.00;17.20;;;0.70;99.90;;;;;;459887;258;27551;-68
2022/01/17 04:25:16;;;;;;;36.40;16.85;;;0.70;99.90;;;;;;459894;258;27499;-68
2022/01/17 04:27:18;;;;;;;33.00;16.45;;;0.80;99.90;;;;;;459887;258;27502;-68
2022/01/17 04:29:20;;;;;;;34.50;16.23;;;0.80;99.90;;;;;;459881;258;27515;-68
2022/01/17 04:31:20;;;;;;;38.17;17.50;;;0.80;99.90;;;;;;459852;258;28019;-68
2022/01/17 04:33:21;;;;;;;36.20;16.70;;;0.70;99.90;;;;;;459890;257;27908;-68
2022/01/17 04:35:23;;;;;;;34.35;16.80;;;0.70;99.90;;;;;;459860;258;28012;-68
2022/01/17 04:37:24;;;;;;;34.83;17.23;;;0.70;99.90;;;;;;459883;258;27450;-68
2022/01/17 04:39:25;;;;;;;37.03;17.80;;;0.70;99.90;;;;;;459865;258;27499;-68
2022/01/17 04:41:36;;;;;;;37.50;18.33;;;0.70;99.90;;;;;;459882;258;27528;-68
2022/01/17 04:45:38;;;;;;;38.38;16.77;;;0.70;99.90;;;;;;459860;258;27470;-68
2022/01/17 04:47:39;;;;;;;40.60;18.05;;;0.70;99.90;;;;;;459864;258;27534;-68
2022/01/17 04:49:41;;;;;;;38.85;16.12;;;0.70;99.90;;;;;;459886;258;27965;-68
2022/01/17 04:51:42;;;;;;;34.70;16.67;;;0.70;99.90;;;;;;459875;258;27990;-68
2022/01/17 04:53:56;;;;;;;31.17;15.75;;;0.70;99.90;;;;;;459888;258;27992;-68
2022/01/17 04:55:44;;;;;;;39.70;16.50;;;0.70;99.90;;;;;;459912;258;27555;-68
2022/01/17 04:57:46;;;;;;;36.38;18.12;;;0.70;99.90;;;;;;459875;258;27526;-68
2022/01/17 04:59:47;;;;;;;32.88;16.05;;;0.70;99.90;;;;;;459915;258;27518;-68
2022/01/17 05:01:48;;;;;;;37.47;17.40;;;0.70;99.90;;;;;;459886;258;27466;-69
2022/01/17 05:03:49;;;;;;;36.70;17.15;;;0.60;99.90;;;;;;459877;258;27510;-68
2022/01/17 05:05:51;;;;;;;37.05;18.35;;;0.70;99.90;;;;;;459852;258;27483;-68
2022/01/17 05:07:52;;;;;;;42.08;19.17;;;0.70;99.90;;;;;;459867;258;27946;-68
2022/01/17 05:09:53;;;;;;;38.22;18.60;;;0.70;99.90;;;;;;459880;258;27991;-69
2022/01/17 05:11:54;;;;;;;42.62;20.40;;;0.70;99.90;;;;;;459855;258;27479;-68
2022/01/17 05:13:56;;;;;;;40.17;18.62;;;0.70;99.90;;;;;;459870;258;27502;-68
2022/01/17 05:16:14;;;;;;;39.83;19.35;;;0.70;99.90;;;;;;459859;258;27526;-68
2022/01/17 05:20:11;;;;;;;42.22;18.83;;;0.70;99.90;;;;;;459880;258;27511;-68
2022/01/17 05:22:13;;;;;;;34.20;16.75;;;0.70;99.90;;;;;;459858;258;27511;-68
2022/01/17 05:24:14;;;;;;;38.50;16.73;;;0.70;99.90;;;;;;459844;258;27590;-68
2022/01/17 05:26:15;;;;;;;37.85;17.80;;;0.70;99.90;;;;;;459861;258;27467;-68
2022/01/17 05:28:16;;;;;;;34.72;15.70;;;0.70;99.90;;;;;;459887;258;27555;-68
2022/01/17 05:30:18;;;;;;;29.35;15.02;;;0.70;99.90;;;;;;459870;258;27977;-68
2022/01/17 05:32:20;;;;;;;41.45;17.37;;;0.70;99.90;;;;;;459850;258;28080;-68
2022/01/17 05:34:20;;;;;;;34.35;15.45;;;0.70;99.90;;;;;;459817;258;27497;-68
2022/01/17 05:36:23;;;;;;;41.17;17.37;;;0.70;99.90;;;;;;459876;258;27602;-68
2022/01/17 05:38:23;;;;;;;37.90;16.10;;;0.60;99.90;;;;;;459849;258;27511;-68
2022/01/17 05:40:24;;;;;;;38.05;16.60;;;0.60;99.90;;;;;;459865;258;27587;-68
2022/01/17 05:42:26;;;;;;;34.35;15.85;;;0.60;99.90;;;;;;459866;258;27476;-68
2022/01/17 05:44:26;;;;;;;33.50;15.75;;;0.60;99.90;;;;;;459852;258;28031;-68
2022/01/17 05:46:28;;;;;;;34.60;15.80;;;0.60;99.90;;;;;;459883;258;27962;-68
2022/01/17 05:48:29;;;;;;;30.83;15.20;;;0.70;99.90;;;;;;459855;258;27486;-68
2022/01/17 05:50:30;;;;;;;33.22;14.85;;;0.70;99.90;;;;;;459856;258;27503;-68
2022/01/17 05:52:31;;;;;;;34.42;16.75;;;0.60;99.90;;;;;;459857;258;27464;-68
2022/01/17 05:54:33;;;;;;;32.95;14.10;;;0.70;99.90;;;;;;459880;258;27511;-68
2022/01/17 05:56:34;;;;;;;29.05;14.57;;;0.70;99.90;;;;;;459869;258;27582;-68
2022/01/17 05:58:35;;;;;;;34.53;15.40;;;0.70;99.90;;;;;;459857;258;27475;-68
2022/01/17 06:00:36;;;;;;;36.38;15.45;;;0.70;99.90;;;;;;459856;258;27974;-68
2022/01/17 06:02:38;;;;;;;29.60;14.65;;;0.70;99.90;;;;;;459863;258;29820;-69
2022/01/17 06:04:39;;;;;;;30.65;15.27;;;0.70;99.90;;;;;;459861;258;27464;-68
2022/01/17 06:06:40;;;;;;;36.17;16.15;;;0.70;99.90;;;;;;459874;258;27644;-68
2022/01/17 06:08:42;;;;;;;36.97;16.35;;;0.70;99.90;;;;;;459857;258;27540;-68
2022/01/17 06:10:43;;;;;;;31.23;15.02;;;0.80;99.90;;;;;;459849;258;27515;-68
2022/01/17 06:12:44;;;;;;;35.90;17.17;;;0.70;99.90;;;;;;459855;258;27526;-68
2022/01/17 06:14:45;;;;;;;31.62;15.23;;;0.70;99.90;;;;;;459870;258;27552;-68
2022/01/17 06:16:47;;;;;;;33.05;14.87;;;0.70;99.90;;;;;;459862;258;27985;-68
2022/01/17 06:18:48;;;;;;;30.52;13.35;;;0.80;99.90;;;;;;459848;258;27966;-69
2022/01/17 06:20:49;;;;;;;30.55;13.02;;;0.80;99.90;;;;;;459838;258;27570;-68
2022/01/17 06:22:50;;;;;;;30.92;14.75;;;0.70;99.90;;;;;;459854;258;27542;-68
2022/01/17 06:24:52;;;;;;;29.63;13.30;;;0.70;99.90;;;;;;459874;258;27463;-68
2022/01/17 06:26:53;;;;;;;30.60;14.00;;;0.80;99.90;;;;;;459886;258;27590;-68
2022/01/17 06:28:54;;;;;;;33.40;14.00;;;0.70;99.90;;;;;;459854;258;27467;-68
2022/01/17 06:30:55;;;;;;;28.92;14.30;;;0.80;99.90;;;;;;459889;258;27478;-68
2022/01/17 06:32:57;;;;;;;32.35;15.02;;;0.80;99.90;;;;;;459849;258;28065;-68
2022/01/17 06:34:58;;;;;;;28.25;13.45;;;0.80;99.90;;;;;;459871;258;27923;-68
2022/01/17 06:36:59;;;;;;;28.05;14.02;;;0.80;99.90;;;;;;459853;258;27526;-68
2022/01/17 06:39:00;;;;;;;26.27;13.75;;;0.80;99.90;;;;;;459850;258;27536;-68
2022/01/17 06:41:02;;;;;;;32.60;15.48;;;0.80;99.90;;;;;;459900;258;27467;-68
2022/01/17 06:43:05;;;;;;;30.02;14.73;;;0.80;99.90;;;;;;459869;258;27514;-69
2022/01/17 06:45:05;;;;;;;33.80;16.08;;;0.80;99.90;;;;;;459875;258;27455;-68
2022/01/17 06:47:05;;;;;;;33.35;15.38;;;0.80;99.90;;;;;;459857;258;27978;-68
2022/01/17 06:49:07;;;;;;;30.40;14.98;;;0.80;99.90;;;;;;459870;258;28147;-68
2022/01/17 06:51:08;;;;;;;30.58;14.00;;;0.80;99.90;;;;;;459881;258;27482;-68
2022/01/17 06:53:09;;;;;;;27.58;13.27;;;0.80;99.90;;;;;;459851;258;27515;-68
2022/01/17 06:55:10;;;;;;;28.52;13.15;;;0.80;99.90;;;;;;459846;258;27565;-68
2022/01/17 06:57:12;;;;;;;32.00;14.43;;;0.80;99.90;;;;;;459863;258;27475;-68
2022/01/17 06:59:13;;;;;;;26.75;14.13;;;0.80;99.90;;;;;;459886;258;27625;-68
2022/01/17 07:01:14;;;;;;;33.22;14.98;;;0.80;99.90;;;;;;459873;258;27565;-68
2022/01/17 07:03:15;;;;;;;33.78;15.40;;;0.80;99.90;;;;;;459879;258;28027;-68
2022/01/17 07:05:17;;;;;;;36.95;17.00;;;0.80;99.90;;;;;;459871;258;27927;-68
2022/01/17 07:07:20;;;;;;;38.75;17.02;;;0.80;99.90;;;;;;459895;258;27544;-68
2022/01/17 07:09:19;;;;;;;35.40;16.40;;;0.80;99.90;;;;;;459895;258;27498;-69
2022/01/17 07:11:21;;;;;;;33.28;14.87;;;0.80;99.90;;;;;;459851;258;27623;-68
2022/01/17 07:13:22;;;;;;;38.90;18.27;;;0.80;99.90;;;;;;459845;258;27590;-68
2022/01/17 07:15:23;;;;;;;37.40;16.70;;;0.80;99.90;;;;;;459877;258;27839;-68
2022/01/17 07:17:24;;;;;;;34.05;16.58;;;0.80;99.90;;;;;;459890;258;27583;-68
2022/01/17 07:19:25;;;;;;;35.47;15.60;;;0.80;99.90;;;;;;459873;258;28017;-68
2022/01/17 07:21:27;;;;;;;30.52;14.87;;;0.90;99.90;;;;;;459894;254;28014;-68
2022/01/17 07:23:28;;;;;;;31.62;14.45;;;0.80;99.90;;;;;;459849;254;27495;-69
2022/01/17 07:25:29;;;;;;;31.90;14.32;;;0.80;99.90;;;;;;459885;258;27494;-68
2022/01/17 07:27:30;;;;;;;33.20;15.27;;;0.80;99.90;;;;;;459870;258;27563;-68
2022/01/17 07:29:32;;;;;;;35.55;16.33;;;0.90;99.90;;;;;;459831;258;27499;-68
2022/01/17 07:31:33;;;;;;;34.30;15.15;;;0.90;99.90;;;;;;459807;258;27506;-68
2022/01/17 07:33:37;;;;;;;30.45;14.95;;;0.90;99.90;;;;;;459843;258;27986;-68
2022/01/17 07:35:36;;;;;;;32.70;14.93;;;0.80;99.90;;;;;;459847;258;27997;-68
2022/01/17 07:37:37;;;;;;;36.90;16.17;;;0.90;99.90;;;;;;459888;258;27562;-69
2022/01/17 07:39:38;;;;;;;31.83;14.82;;;0.80;99.90;;;;;;459862;254;27535;-68
2022/01/17 07:41:39;;;;;;;29.92;14.85;;;0.90;99.90;;;;;;459845;258;27490;-68
2022/01/17 07:43:41;;;;;;;29.48;14.63;;;0.90;99.90;;;;;;459887;258;27539;-68
2022/01/17 07:45:55;;;;;;;35.22;16.70;;;0.90;99.90;;;;;;459854;258;27583;-69
2022/01/17 07:49:47;;;;;;;35.38;15.13;;;0.90;99.90;;;;;;453726;258;28062;-68
2022/01/17 07:51:48;;;;;;;34.85;15.80;;;0.90;99.90;;;;;;459873;258;27574;-69
2022/01/17 07:53:50;;;;;;;32.42;15.10;;;0.90;99.90;;;;;;459886;258;27603;-69
2022/01/17 07:55:51;;;;;;;32.75;14.63;;;0.90;99.90;;;;;;459884;258;27482;-69
2022/01/17 07:57:53;;;;;;;34.95;15.88;;;1.00;99.90;;;;;;459871;258;27502;-68
2022/01/17 07:59:53;;;;;;;35.67;15.50;;;0.90;99.90;;;;;;459862;258;27510;-69
2022/01/17 08:01:55;;;;;;;31.52;14.30;;;0.90;99.90;;;;;;459851;258;27951;-68
2022/01/17 08:03:56;;;;;;;36.22;15.80;;;0.90;99.90;;;;;;459884;258;28020;-68
2022/01/17 08:05:57;;;;;;;34.72;15.13;;;0.80;99.90;;;;;;459877;258;27464;-68
2022/01/17 08:07:59;;;;;;;39.67;17.33;;;0.90;99.90;;;;;;459868;258;27539;-68
2022/01/17 08:10:00;;;;;;;32.80;14.87;;;0.90;99.90;;;;;;459871;258;27463;-68
2022/01/17 08:12:01;;;;;;;31.83;15.13;;;0.90;99.90;;;;;;459875;258;27555;-68
2022/01/17 08:14:02;;;;;;;29.60;14.87;;;1.00;99.90;;;;;;459889;258;27518;-68
2022/01/17 08:16:04;;;;;;;30.30;14.20;;;1.00;99.90;;;;;;459854;258;27519;-68
2022/01/17 08:18:05;;;;;;;33.67;14.00;;;1.00;99.90;;;;;;459870;258;28058;-68
2022/01/17 08:20:06;;;;;;;34.10;14.98;;;1.00;99.90;;;;;;459861;258;27927;-69
2022/01/17 08:22:08;;;;;;;28.12;13.93;;;1.00;99.90;;;;;;459880;258;27458;-68
2022/01/17 08:24:09;;;;;;;32.97;14.80;;;1.00;99.90;;;;;;459882;258;27584;-68
2022/01/17 08:26:10;;;;;;;28.95;15.02;;;1.00;99.90;;;;;;459807;258;27579;-69
2022/01/17 08:28:11;;;;;;;32.22;14.85;;;1.00;99.90;;;;;;459875;258;27569;-69
2022/01/17 08:30:12;;;;;;;40.55;17.85;;;1.00;99.90;;;;;;459877;258;27514;-68
2022/01/17 08:32:14;;;;;;;31.77;15.18;;;1.00;99.90;;;;;;459861;258;27617;-68
2022/01/17 08:34:17;;;;;;;34.90;15.93;;;1.00;99.90;;;;;;459870;258;28160;-68
2022/01/17 08:36:19;;;;;;;34.95;15.02;;;1.10;99.90;;;;;;459848;258;27921;-69
2022/01/17 08:38:17;;;;;;;29.27;14.35;;;1.00;99.90;;;;;;459862;258;27505;-69
2022/01/17 08:40:19;;;;;;;33.05;14.68;;;1.00;99.90;;;;;;459899;258;27499;-69
2022/01/17 08:42:20;;;;;;;29.58;13.82;;;1.00;99.90;;;;;;459884;258;27502;-69
2022/01/17 08:44:21;;;;;;;33.97;15.77;;;1.00;99.90;;;;;;459873;258;27490;-68
2022/01/17 08:46:22;;;;;;;35.60;14.55;;;1.10;99.90;;;;;;459858;258;27546;-68
2022/01/17 08:48:24;;;;;;;32.33;15.43;;;1.10;99.90;;;;;;459857;258;27974;-69
2022/01/17 08:50:25;;;;;;;32.55;14.77;;;1.20;99.90;;;;;;459870;258;27969;-69
2022/01/17 08:52:26;;;;;;;35.10;15.80;;;1.20;99.90;;;;;;459848;258;27543;-68
2022/01/17 08:54:27;;;;;;;27.30;12.90;;;1.30;99.90;;;;;;459855;258;27509;-69
2022/01/17 08:56:30;;;;;;;27.75;13.43;;;1.30;99.90;;;;;;459874;258;27483;-69
2022/01/17 08:58:30;;;;;;;27.62;13.20;;;1.30;99.90;;;;;;459869;258;27464;-68
2022/01/17 09:00:34;;;;;;;26.67;13.62;;;1.30;99.90;;;;;;459869;258;27515;-68
2022/01/17 09:02:35;;;;;;;27.83;13.45;;;1.20;99.90;;;;;;459855;258;27526;-68
2022/01/17 09:04:40;;;;;;;26.12;13.30;;;1.20;99.90;;;;;;459856;258;27466;-68
2022/01/17 09:06:38;;;;;;;26.62;13.30;;;1.20;99.90;;;;;;459870;258;27468;-68
2022/01/17 09:08:39;;;;;;;27.77;13.27;;;1.30;99.90;;;;;;459875;258;27955;-68
2022/01/17 09:10:40;;;;;;;26.95;13.70;;;1.30;99.90;;;;;;459868;258;28023;-68
2022/01/17 09:12:42;;;;;;;29.10;14.07;;;1.30;99.90;;;;;;459837;258;27531;-69
2022/01/17 09:14:43;;;;;;;26.67;12.63;;;1.30;99.90;;;;;;459735;258;27490;-68
2022/01/17 09:16:44;;;;;;;22.77;12.75;;;1.30;99.90;;;;;;459718;258;27510;-68
2022/01/17 09:18:45;;;;;;;28.73;13.38;;;1.30;99.90;;;;;;459656;258;27595;-68
2022/01/17 09:20:47;;;;;;;24.25;12.77;;;1.30;99.90;;;;;;459676;258;27472;-68
2022/01/17 09:22:48;;;;;;;28.83;14.00;;;1.30;99.90;;;;;;459757;258;27503;-68
2022/01/17 09:24:50;;;;;;;29.33;13.23;;;1.40;99.90;;;;;;459882;258;27970;-69
2022/01/17 09:26:50;;;;;;;29.08;13.05;;;1.50;99.90;;;;;;459869;258;27906;-68
2022/01/17 09:28:52;;;;;;;28.25;13.73;;;1.50;99.90;;;;;;459857;258;27509;-68
2022/01/17 09:30:53;;;;;;;32.40;15.02;;;1.60;99.90;;;;;;459865;258;27491;-69
2022/01/17 09:32:54;;;;;;;32.15;14.65;;;1.50;99.90;;;;;;459867;258;27587;-69
2022/01/17 09:34:55;;;;;;;35.35;14.48;;;1.50;99.90;;;;;;459887;258;27522;-68
2022/01/17 09:36:57;;;;;;;25.65;12.70;;;1.50;99.90;;;;;;459880;258;27479;-69
2022/01/17 09:38:58;;;;;;;28.15;12.90;;;1.50;99.90;;;;;;459842;258;27503;-68
2022/01/17 09:40:59;;;;;;;28.27;13.60;;;1.50;99.90;;;;;;459855;258;28701;-68
2022/01/17 09:43:02;;;;;;;29.75;13.35;;;1.50;99.90;;;;;;459873;258;27927;-68
2022/01/17 09:45:02;;;;;;;28.05;13.00;;;1.60;99.90;;;;;;459866;258;27575;-68
2022/01/17 09:47:03;;;;;;;22.35;11.40;;;1.60;99.90;;;;;;459868;258;27559;-68
2022/01/17 09:49:22;;;;;;;26.62;13.52;;;1.60;99.90;;;;;;459857;258;27585;-68
2022/01/17 09:51:19;;;;;;;26.92;12.98;;;1.60;99.90;;;;;;459763;258;27573;-68
2022/01/17 09:53:16;;;;;;;31.15;14.68;;;1.60;99.90;;;;;;459808;258;27490;-68
2022/01/17 09:55:21;;;;;;;29.83;13.38;;;1.60;99.90;;;;;;459859;258;27468;-68
2022/01/17 09:57:19;;;;;;;25.52;13.13;;;1.60;99.90;;;;;;459640;258;27539;-69
2022/01/17 09:59:20;;;;;;;28.58;13.85;;;1.50;99.90;;;;;;459885;258;27975;-68
2022/01/17 10:01:21;;;;;;;24.10;13.40;;;1.50;99.90;;;;;;459890;258;27943;-68
2022/01/17 10:03:22;;;;;;;26.85;13.52;;;1.50;99.90;;;;;;459880;258;27494;-68
2022/01/17 10:05:24;;;;;;;28.52;14.13;;;1.50;99.90;;;;;;459686;258;27482;-68
2022/01/17 10:07:27;;;;;;;25.37;12.85;;;1.60;99.90;;;;;;459885;258;27579;-68
2022/01/17 10:09:26;;;;;;;26.67;12.77;;;1.60;99.90;;;;;;459866;258;27502;-68
2022/01/17 10:11:27;;;;;;;29.52;14.73;;;1.60;99.90;;;;;;459859;258;27527;-68
2022/01/17 10:13:29;;;;;;;26.40;13.02;;;1.60;99.90;;;;;;459815;258;27932;-68
2022/01/17 10:15:43;;;;;;;27.33;14.15;;;1.60;99.90;;;;;;459871;258;28044;-68
2022/01/17 10:17:31;;;;;;;33.42;15.20;;;1.50;99.90;;;;;;459911;258;27474;-68
2022/01/17 10:19:33;;;;;;;35.45;15.57;;;1.60;99.90;;;;;;459878;258;27531;-69
2022/01/17 10:21:38;;;;;;;28.90;13.82;;;1.60;99.90;;;;;;459837;258;27522;-68
2022/01/17 10:25:57;;;;;;;34.60;13.85;;;1.70;99.90;;;;;;459874;258;28108;-68
2022/01/17 10:28:08;;;;;;;24.77;12.25;;;1.70;99.90;;;;;;459898;258;27889;-68
2022/01/17 10:36:46;;;;;;;25.52;12.77;;;1.70;99.90;;;;;;459840;257;27552;-68
2022/01/17 10:38:47;;;;;;;30.37;14.07;;;1.70;99.90;;;;;;459836;258;27587;-68
2022/01/17 10:40:49;;;;;;;27.95;13.23;;;1.60;99.90;;;;;;459885;258;27614;-68
2022/01/17 10:42:50;;;;;;;27.42;13.27;;;1.60;99.90;;;;;;459858;258;27467;-68
2022/01/17 10:44:51;;;;;;;30.75;13.98;;;1.70;99.90;;;;;;459863;258;27494;-68
2022/01/17 10:46:52;;;;;;;27.92;12.63;;;1.80;99.90;;;;;;459845;258;27919;-68
2022/01/17 10:48:56;;;;;;;22.52;11.30;;;1.80;99.90;;;;;;459858;258;27990;-68
2022/01/17 10:50:55;;;;;;;26.83;13.13;;;1.80;99.90;;;;;;459874;258;27518;-68
2022/01/17 10:52:56;;;;;;;29.10;13.13;;;1.80;99.90;;;;;;459878;258;27459;-68